createdAt,value
2019-03-05T00:04:26.638Z,2.80
2019-03-05T00:09:18.481Z,2.10
2019-03-05T00:14:12.593Z,2.10
2019-03-05T00:19:04.268Z,2.60
2019-03-05T00:23:55.970Z,1.90
2019-03-05T00:28:47.893Z,2.50
2019-03-05T00:33:39.989Z,4.30
2019-03-05T00:38:32.038Z,2.50
2019-03-05T00:43:24.040Z,3.20
2019-03-05T00:48:16.096Z,3.30
2019-03-05T00:53:08.005Z,3.80
2019-03-05T00:58:00.028Z,2.70
2019-03-05T01:02:53.969Z,2.30
2019-03-05T01:07:45.677Z,2.00
2019-03-05T01:12:37.863Z,3.10
2019-03-05T01:17:29.838Z,1.80
2019-03-05T01:22:21.646Z,3.00
2019-03-05T01:27:13.634Z,2.30
2019-03-05T01:32:05.547Z,1.90
2019-03-05T01:36:57.564Z,1.30
2019-03-05T01:41:49.625Z,2.20
2019-03-05T01:46:41.317Z,3.20
2019-03-05T01:51:33.170Z,1.40
2019-03-05T01:56:24.828Z,1.50
2019-03-05T02:01:16.819Z,1.40
2019-03-05T02:06:09.175Z,1.20
2019-03-05T02:11:00.729Z,1.10
2019-03-05T02:15:52.479Z,2.40
2019-03-05T02:20:44.194Z,2.10
2019-03-05T02:25:36.239Z,1.50
2019-03-05T02:30:28.067Z,1.40
2019-03-05T02:35:20.078Z,0.90
2019-03-05T02:40:11.929Z,1.90
2019-03-05T02:45:03.724Z,1.30
2019-03-05T02:49:55.551Z,2.20
2019-03-05T02:54:47.442Z,2.40
2019-03-05T02:59:39.353Z,1.70
2019-03-05T03:04:30.497Z,1.40
2019-03-05T03:09:22.672Z,1.50
2019-03-05T03:14:14.710Z,1.30
2019-03-05T03:19:06.738Z,2.20
2019-03-05T03:23:58.728Z,1.70
2019-03-05T03:28:50.373Z,2.00
2019-03-05T03:33:42.480Z,2.90
2019-03-05T03:38:34.618Z,1.10
2019-03-05T03:43:26.677Z,1.40
2019-03-05T03:48:18.423Z,2.00
2019-03-05T03:53:10.159Z,1.70
2019-03-05T03:58:01.988Z,1.50
2019-03-05T04:02:54.094Z,1.50
2019-03-05T04:07:47.797Z,1.90
2019-03-05T04:12:39.281Z,1.70
2019-03-05T04:17:31.061Z,2.00
2019-03-05T04:22:22.940Z,1.80
2019-03-05T04:27:14.995Z,1.00
2019-03-05T04:32:06.983Z,1.90
2019-03-05T04:36:58.859Z,1.90
2019-03-05T04:41:50.958Z,1.30
2019-03-05T04:46:43.110Z,1.50
2019-03-05T04:51:35.022Z,1.40
2019-03-05T04:56:27.668Z,1.70
2019-03-05T05:01:19.500Z,2.20
2019-03-05T05:06:11.209Z,1.20
2019-03-05T05:11:03.226Z,1.20
2019-03-05T05:15:55.072Z,1.10
2019-03-05T05:20:47.044Z,1.80
2019-03-05T05:25:39.073Z,2.80
2019-03-05T05:30:31.128Z,2.00
2019-03-05T05:35:23.115Z,2.00
2019-03-05T05:40:15.125Z,1.40
2019-03-05T05:45:07.095Z,1.60
2019-03-05T05:49:59.082Z,0.80
2019-03-05T05:54:51.087Z,1.80
2019-03-05T05:59:44.109Z,1.50
2019-03-05T06:04:36.351Z,1.10
2019-03-05T06:09:28.338Z,1.60
2019-03-05T06:14:20.126Z,2.10
2019-03-05T06:19:12.021Z,2.20
2019-03-05T06:24:03.779Z,1.40
2019-03-05T06:28:55.529Z,0.50
2019-03-05T06:33:47.424Z,1.80
2019-03-05T06:38:39.386Z,2.70
2019-03-05T06:43:31.371Z,1.10
2019-03-05T06:48:23.313Z,1.50
2019-03-05T06:53:15.342Z,1.60
2019-03-05T06:58:07.169Z,0.70
2019-03-05T07:02:59.228Z,1.50
2019-03-05T07:07:51.188Z,0.80
2019-03-05T07:12:45.111Z,2.00
2019-03-05T07:17:36.474Z,1.20
2019-03-05T07:22:28.484Z,1.30
2019-03-05T07:27:22.197Z,1.40
2019-03-05T07:32:13.747Z,1.50
2019-03-05T07:37:05.330Z,0.70
2019-03-05T07:41:57.217Z,1.20
2019-03-05T07:46:48.949Z,0.90
2019-03-05T07:51:41.701Z,1.30
2019-03-05T07:56:33.754Z,1.90
2019-03-05T08:01:25.711Z,1.80
2019-03-05T08:06:17.752Z,2.10
2019-03-05T08:11:09.637Z,2.30
2019-03-05T08:16:03.279Z,4.00
2019-03-05T08:20:54.330Z,3.20
2019-03-05T08:25:46.199Z,3.50
2019-03-05T08:30:38.271Z,2.80
2019-03-05T08:35:30.457Z,5.00
2019-03-05T08:40:22.709Z,3.80
2019-03-05T08:45:14.852Z,3.40
2019-03-05T08:50:06.674Z,3.60
2019-03-05T08:54:58.510Z,2.60
2019-03-05T08:59:50.564Z,2.20
2019-03-05T09:04:42.667Z,4.80
2019-03-05T09:09:35.554Z,3.00
2019-03-05T09:14:27.926Z,2.20
2019-03-05T09:19:20.013Z,4.10
2019-03-05T09:24:11.934Z,2.40
2019-03-05T09:29:03.866Z,2.20
2019-03-05T09:33:55.941Z,2.10
2019-03-05T09:38:48.240Z,2.80
2019-03-05T09:43:40.262Z,2.30
2019-03-05T09:48:32.319Z,2.50
2019-03-05T09:53:24.191Z,2.40
2019-03-05T09:58:16.301Z,2.40
2019-03-05T10:03:08.752Z,2.50
2019-03-05T10:08:00.745Z,1.60
2019-03-05T10:12:52.986Z,2.00
2019-03-05T10:17:49.844Z,2.70
2019-03-05T10:22:41.071Z,2.50
2019-03-05T10:27:33.228Z,2.60
2019-03-05T10:32:25.226Z,2.00
2019-03-05T10:37:19.421Z,2.60
2019-03-05T10:42:10.767Z,2.40
2019-03-05T10:47:03.067Z,3.30
2019-03-05T10:51:54.908Z,2.20
2019-03-05T10:56:46.754Z,1.90
2019-03-05T11:01:38.559Z,1.50
2019-03-05T11:06:32.439Z,1.40
2019-03-05T11:11:24.014Z,1.20
2019-03-05T11:16:16.049Z,1.20
2019-03-05T11:21:08.453Z,1.40
2019-03-05T11:26:00.999Z,1.70
2019-03-05T11:30:53.127Z,1.90
2019-03-05T11:35:45.090Z,1.70
2019-03-05T11:40:37.149Z,1.20
2019-03-05T11:45:29.907Z,1.70
2019-03-05T11:50:22.040Z,3.10
2019-03-05T11:55:13.862Z,2.70
2019-03-05T12:00:07.633Z,1.50
2019-03-05T12:05:00.970Z,1.40
2019-03-05T12:09:52.497Z,1.70
2019-03-05T12:14:44.299Z,1.50
2019-03-05T12:19:35.923Z,1.70
2019-03-05T12:24:28.898Z,1.20
2019-03-05T12:29:21.030Z,1.60
2019-03-05T12:34:13.089Z,0.80
2019-03-05T12:39:05.647Z,1.30
2019-03-05T12:43:57.726Z,2.70
2019-03-05T12:48:49.555Z,1.20
2019-03-05T12:53:41.383Z,0.90
2019-03-05T12:58:33.375Z,0.80
2019-03-05T13:03:26.354Z,0.80
2019-03-05T13:08:19.176Z,0.70
2019-03-05T13:13:15.346Z,0.60
2019-03-05T13:18:06.832Z,0.90
2019-03-05T13:22:58.902Z,1.10
2019-03-05T13:27:51.544Z,1.10
2019-03-05T13:32:43.708Z,1.00
2019-03-05T13:37:35.882Z,0.80
2019-03-05T13:42:34.484Z,1.10
2019-03-05T13:47:26.210Z,1.10
2019-03-05T13:52:17.854Z,1.10
2019-03-05T13:57:09.870Z,1.10
2019-03-05T14:02:01.336Z,1.10
2019-03-05T14:06:53.274Z,1.80
2019-03-05T14:11:46.178Z,1.20
2019-03-05T14:16:38.038Z,1.00
2019-03-05T14:21:30.361Z,1.30
2019-03-05T14:26:22.954Z,1.60
2019-03-05T14:31:14.832Z,1.00
2019-03-05T14:36:06.858Z,1.40
2019-03-05T14:40:58.739Z,1.00
2019-03-05T14:45:51.529Z,1.30
2019-03-05T14:50:43.457Z,1.10
2019-03-05T14:55:35.766Z,0.80
2019-03-05T15:00:27.742Z,0.80
2019-03-05T15:05:20.589Z,1.00
2019-03-05T15:10:12.396Z,1.30
2019-03-05T15:15:04.719Z,1.30
2019-03-05T15:19:56.763Z,1.10
2019-03-05T15:24:48.763Z,0.70
2019-03-05T15:29:41.003Z,1.70
2019-03-05T15:34:33.019Z,1.50
2019-03-05T15:39:25.075Z,1.60
2019-03-05T15:44:18.188Z,2.10
2019-03-05T15:49:10.219Z,1.00
2019-03-05T15:54:02.315Z,0.90
2019-03-05T15:58:54.313Z,1.40
2019-03-05T16:03:46.399Z,1.00
2019-03-05T16:08:38.346Z,1.70
2019-03-05T16:13:33.131Z,1.50
2019-03-05T16:18:24.714Z,1.10
2019-03-05T16:23:16.833Z,1.60
2019-03-05T16:28:09.079Z,2.00
2019-03-05T16:33:01.662Z,1.00
2019-03-05T16:37:53.833Z,1.50
2019-03-05T16:42:46.045Z,2.30
2019-03-05T16:47:38.080Z,1.40
2019-03-05T16:52:30.010Z,1.60
2019-03-05T16:57:23.918Z,1.40
2019-03-05T17:02:15.533Z,1.70
2019-03-05T17:07:07.596Z,1.50
2019-03-05T17:12:01.790Z,1.00
2019-03-05T17:16:53.281Z,1.60
2019-03-05T17:21:45.124Z,0.90
2019-03-05T17:26:37.831Z,1.70
2019-03-05T17:31:29.598Z,0.90
2019-03-05T17:36:21.450Z,1.00
2019-03-05T17:41:13.217Z,2.90
2019-03-05T17:46:05.622Z,2.40
2019-03-05T17:50:57.465Z,1.70
2019-03-05T17:55:49.237Z,1.60
2019-03-05T18:00:41.356Z,1.40
2019-03-05T18:05:33.237Z,1.50
2019-03-05T18:10:26.942Z,1.20
2019-03-05T18:15:18.340Z,1.30
2019-03-05T18:20:10.898Z,0.90
2019-03-05T18:25:02.808Z,1.40
2019-03-05T18:29:54.566Z,1.50
2019-03-05T18:34:46.278Z,0.90
2019-03-05T18:39:40.221Z,0.90
2019-03-05T18:44:31.514Z,1.10
2019-03-05T18:49:23.906Z,1.00
2019-03-05T18:54:17.989Z,1.50
2019-03-05T18:59:09.379Z,1.30
2019-03-05T19:04:01.159Z,1.10
2019-03-05T19:08:53.143Z,1.40
2019-03-05T19:13:43.324Z,1.80
2019-03-05T19:18:34.902Z,1.30
2019-03-05T19:23:26.615Z,1.90
2019-03-05T19:28:18.929Z,1.50
2019-03-05T19:33:10.755Z,1.70
2019-03-05T19:38:02.450Z,2.20
2019-03-05T19:42:54.894Z,1.90
2019-03-05T19:47:46.514Z,1.90
2019-03-05T19:52:38.048Z,1.70
2019-03-05T19:57:30.101Z,1.80
2019-03-05T20:02:21.959Z,2.10
2019-03-05T20:07:13.809Z,2.10
2019-03-05T20:12:06.841Z,1.80
2019-03-05T20:16:57.962Z,2.60
2019-03-05T20:21:49.593Z,2.60
2019-03-05T20:26:41.500Z,2.90
2019-03-05T20:31:33.881Z,2.50
2019-03-05T20:36:25.833Z,2.50
2019-03-05T20:41:17.710Z,3.20
2019-03-05T20:46:11.513Z,2.70
2019-03-05T20:51:02.736Z,2.90
2019-03-05T20:55:54.781Z,2.90
2019-03-05T21:00:47.616Z,2.40
2019-03-05T21:05:39.951Z,3.00
2019-03-05T21:10:32.267Z,8.40
2019-03-05T21:15:24.446Z,7.00
2019-03-05T21:20:16.146Z,7.30
2019-03-05T21:25:08.193Z,6.30
2019-03-05T21:29:59.962Z,6.60
2019-03-05T21:34:51.125Z,10.20
2019-03-05T21:39:42.906Z,12.10
2019-03-05T21:44:34.849Z,11.30
2019-03-05T21:49:26.774Z,13.10
2019-03-05T21:54:19.793Z,12.60
2019-03-05T21:59:12.278Z,10.40
2019-03-05T22:04:04.054Z,4.90
2019-03-05T22:08:56.101Z,3.20
2019-03-05T22:13:48.987Z,2.60
2019-03-05T22:18:40.586Z,3.10
2019-03-05T22:23:32.390Z,2.10
2019-03-05T22:28:24.301Z,2.30
2019-03-05T22:33:16.882Z,2.30
2019-03-05T22:38:08.697Z,2.90
2019-03-05T22:43:00.463Z,3.00
2019-03-05T22:47:52.347Z,2.50
2019-03-05T22:52:44.671Z,4.30
2019-03-05T22:57:37.479Z,2.00
2019-03-05T23:02:29.149Z,2.20
2019-03-05T23:07:21.605Z,2.00
2019-03-05T23:12:13.610Z,2.50
2019-03-05T23:17:05.481Z,2.50
2019-03-05T23:21:56.981Z,4.00
2019-03-05T23:26:48.430Z,4.40
2019-03-05T23:31:42.584Z,3.00
2019-03-05T23:36:33.721Z,3.50
2019-03-05T23:41:26.311Z,2.60
2019-03-05T23:46:18.204Z,4.10
2019-03-05T23:51:09.873Z,4.30
2019-03-05T23:56:02.415Z,2.20
